createdAt,value
2022-12-01T00:01:22.903Z,49.20
2022-12-01T00:03:50.664Z,50.40
2022-12-01T00:06:20.094Z,46.30
2022-12-01T00:09:09.735Z,46.70
2022-12-01T00:11:38.190Z,41.70
2022-12-01T00:14:06.181Z,44.00
2022-12-01T00:16:34.611Z,46.10
2022-12-01T00:19:02.888Z,44.30
2022-12-01T00:21:31.105Z,49.90
2022-12-01T00:23:58.922Z,40.20
2022-12-01T00:26:27.254Z,50.20
2022-12-01T00:28:57.164Z,46.40
2022-12-01T00:31:25.756Z,48.40
2022-12-01T00:33:53.877Z,47.30
2022-12-01T00:36:22.215Z,42.10
2022-12-01T00:38:57.202Z,52.40
2022-12-01T00:41:25.858Z,42.80
2022-12-01T00:43:53.713Z,41.20
2022-12-01T00:46:21.629Z,45.60
2022-12-01T00:48:49.349Z,41.30
2022-12-01T00:51:17.028Z,49.00
2022-12-01T00:53:44.928Z,44.00
2022-12-01T00:56:12.599Z,41.20
2022-12-01T00:58:40.202Z,46.20
2022-12-01T01:01:08.076Z,41.60
2022-12-01T01:03:35.880Z,39.70
2022-12-01T01:06:04.959Z,41.60
2022-12-01T01:08:33.249Z,42.30
2022-12-01T01:11:01.527Z,42.50
2022-12-01T01:13:29.701Z,39.50
2022-12-01T01:15:58.445Z,44.50
2022-12-01T01:18:26.133Z,45.00
2022-12-01T01:20:58.446Z,45.40
2022-12-01T01:23:26.685Z,41.50
2022-12-01T01:25:54.293Z,46.00
2022-12-01T01:28:22.009Z,42.70
2022-12-01T01:30:50.360Z,45.20
2022-12-01T01:33:18.316Z,46.30
2022-12-01T01:35:45.980Z,42.30
2022-12-01T01:38:13.612Z,40.60
2022-12-01T01:40:47.457Z,42.80
2022-12-01T01:43:37.786Z,38.80
2022-12-01T01:46:06.140Z,40.20
2022-12-01T01:48:35.758Z,44.70
2022-12-01T01:51:03.835Z,42.00
2022-12-01T01:53:31.793Z,40.30
2022-12-01T01:55:59.981Z,41.20
2022-12-01T01:58:27.939Z,43.30
2022-12-01T02:00:56.293Z,41.50
2022-12-01T02:03:24.832Z,48.70
2022-12-01T02:05:52.880Z,45.80
2022-12-01T02:08:20.732Z,38.90
2022-12-01T02:11:07.855Z,44.20
2022-12-01T02:16:09.215Z,42.20
2022-12-01T02:18:40.083Z,42.60
2022-12-01T02:21:08.495Z,46.90
2022-12-01T02:23:39.303Z,50.20
2022-12-01T02:26:16.036Z,44.60
2022-12-01T02:29:16.062Z,46.20
2022-12-01T02:32:02.762Z,46.60
2022-12-01T02:34:35.435Z,44.40
2022-12-01T02:37:03.478Z,43.70
2022-12-01T02:39:37.519Z,49.50
2022-12-01T02:42:44.071Z,47.50
2022-12-01T02:47:40.907Z,42.10
2022-12-01T02:50:10.177Z,38.60
2022-12-01T02:52:39.338Z,43.80
2022-12-01T02:55:07.147Z,43.90
2022-12-01T02:57:34.767Z,43.50
2022-12-01T03:00:03.027Z,43.10
2022-12-01T03:02:58.802Z,37.90
2022-12-01T03:05:29.783Z,43.20
2022-12-01T03:08:00.896Z,42.80
2022-12-01T03:10:29.030Z,43.70
2022-12-01T03:13:00.074Z,41.20
2022-12-01T03:15:30.586Z,45.40
2022-12-01T03:18:01.035Z,47.10
2022-12-01T03:20:37.588Z,43.20
2022-12-01T03:23:11.176Z,38.90
2022-12-01T03:25:41.896Z,42.00
2022-12-01T03:28:21.208Z,39.80
2022-12-01T03:30:52.679Z,42.80
2022-12-01T03:33:23.960Z,39.80
2022-12-01T03:35:54.261Z,41.90
2022-12-01T03:38:23.972Z,39.10
2022-12-01T03:40:54.600Z,43.00
2022-12-01T03:43:25.063Z,39.50
2022-12-01T03:45:56.698Z,43.80
2022-12-01T03:48:25.005Z,41.50
2022-12-01T03:50:58.511Z,43.60
2022-12-01T03:53:28.371Z,42.20
2022-12-01T03:56:03.099Z,38.60
2022-12-01T03:58:34.454Z,44.10
2022-12-01T04:01:03.223Z,42.20
2022-12-01T04:03:31.134Z,44.70
2022-12-01T04:05:59.160Z,44.80
2022-12-01T04:08:27.033Z,43.50
2022-12-01T04:10:54.797Z,49.00
2022-12-01T04:13:23.479Z,45.80
2022-12-01T04:15:52.578Z,46.60
2022-12-01T04:18:20.314Z,46.10
2022-12-01T04:20:49.138Z,46.70
2022-12-01T04:23:35.642Z,49.40
2022-12-01T04:26:05.232Z,47.90
2022-12-01T04:28:32.952Z,51.80
2022-12-01T04:31:00.693Z,50.60
2022-12-01T04:33:29.447Z,46.70
2022-12-01T04:35:58.425Z,45.60
2022-12-01T04:38:30.498Z,49.60
2022-12-01T04:40:58.878Z,54.40
2022-12-01T04:43:26.692Z,53.50
2022-12-01T04:45:54.287Z,49.60
2022-12-01T04:48:22.270Z,47.20
2022-12-01T04:50:49.981Z,57.10
2022-12-01T04:53:17.796Z,54.40
2022-12-01T04:55:45.764Z,48.20
2022-12-01T04:58:13.529Z,48.30
2022-12-01T05:00:41.547Z,49.60
2022-12-01T05:03:14.742Z,57.10
2022-12-01T05:05:42.858Z,59.40
2022-12-01T05:08:11.235Z,54.40
2022-12-01T05:10:39.306Z,54.30
2022-12-01T05:13:07.173Z,49.70
2022-12-01T05:15:34.905Z,56.70
2022-12-01T05:18:02.904Z,53.90
2022-12-01T05:20:49.825Z,55.10
2022-12-01T05:25:46.161Z,60.60
2022-12-01T05:28:14.337Z,55.50
2022-12-01T05:30:41.910Z,58.00
2022-12-01T05:33:09.795Z,57.10
2022-12-01T05:35:37.936Z,53.90
2022-12-01T05:38:08.017Z,56.00
2022-12-01T05:40:36.738Z,47.80
2022-12-01T05:43:04.600Z,57.40
2022-12-01T05:45:32.906Z,54.90
2022-12-01T05:48:01.240Z,57.10
2022-12-01T05:50:30.150Z,53.60
2022-12-01T05:52:57.948Z,50.70
2022-12-01T05:55:25.873Z,55.90
2022-12-01T05:57:53.680Z,47.70
2022-12-01T06:00:21.503Z,51.30
2022-12-01T06:02:49.090Z,49.00
2022-12-01T06:05:17.113Z,55.40
2022-12-01T06:07:45.310Z,55.80
2022-12-01T06:10:13.215Z,50.90
2022-12-01T06:12:41.433Z,55.10
2022-12-01T06:15:10.919Z,57.00
2022-12-01T06:17:40.557Z,49.90
2022-12-01T06:20:09.331Z,55.20
2022-12-01T06:22:37.522Z,51.80
2022-12-01T06:25:05.858Z,53.80
2022-12-01T06:27:33.981Z,51.90
2022-12-01T06:30:02.151Z,53.70
2022-12-01T06:32:30.056Z,49.70
2022-12-01T06:34:57.663Z,55.60
2022-12-01T06:37:26.763Z,54.80
2022-12-01T06:39:54.520Z,53.60
2022-12-01T06:42:22.898Z,52.70
2022-12-01T06:44:50.561Z,57.10
2022-12-01T06:47:18.424Z,49.60
2022-12-01T06:49:46.196Z,48.70
2022-12-01T06:52:13.854Z,46.00
2022-12-01T06:54:42.087Z,53.60
2022-12-01T06:57:10.708Z,51.60
2022-12-01T06:59:38.674Z,54.30
2022-12-01T07:02:06.622Z,51.00
2022-12-01T07:04:34.511Z,52.10
2022-12-01T07:07:04.570Z,48.00
2022-12-01T07:09:32.869Z,48.50
2022-12-01T07:12:00.788Z,55.20
2022-12-01T07:14:28.840Z,53.70
2022-12-01T07:16:56.732Z,49.80
2022-12-01T07:19:24.671Z,53.90
2022-12-01T07:21:52.331Z,54.20
2022-12-01T07:24:19.914Z,50.30
2022-12-01T07:26:48.582Z,49.10
2022-12-01T07:29:16.647Z,44.50
2022-12-01T07:31:44.358Z,50.20
2022-12-01T07:34:15.791Z,49.80
2022-12-01T07:36:43.728Z,56.20
2022-12-01T07:39:11.897Z,46.80
2022-12-01T07:41:39.975Z,56.80
2022-12-01T07:44:09.577Z,50.40
2022-12-01T07:46:37.456Z,51.20
2022-12-01T07:49:06.553Z,48.60
2022-12-01T07:51:35.118Z,56.40
2022-12-01T07:54:04.214Z,50.10
2022-12-01T07:56:32.793Z,46.30
2022-12-01T07:59:00.654Z,40.60
2022-12-01T08:01:28.561Z,46.50
2022-12-01T08:03:57.418Z,53.70
2022-12-01T08:06:25.997Z,46.20
2022-12-01T08:08:54.369Z,47.40
2022-12-01T08:11:23.921Z,45.60
2022-12-01T08:13:52.997Z,41.50
2022-12-01T08:16:21.769Z,49.10
2022-12-01T08:18:50.137Z,49.00
2022-12-01T08:21:19.047Z,46.00
2022-12-01T08:23:48.738Z,45.60
2022-12-01T08:26:18.047Z,43.50
2022-12-01T08:28:46.514Z,44.10
2022-12-01T08:31:16.319Z,42.30
2022-12-01T08:33:44.603Z,46.70
2022-12-01T08:36:12.464Z,45.80
2022-12-01T08:38:42.547Z,45.00
2022-12-01T08:41:10.757Z,43.50
2022-12-01T08:43:57.067Z,42.90
2022-12-01T08:46:27.234Z,42.10
2022-12-01T08:48:57.356Z,43.00
2022-12-01T08:51:25.991Z,44.20
2022-12-01T08:53:55.173Z,45.50
2022-12-01T08:56:25.251Z,47.50
2022-12-01T08:58:54.186Z,47.00
2022-12-01T09:01:22.944Z,42.70
2022-12-01T09:04:05.465Z,45.40
2022-12-01T09:06:41.538Z,48.20
2022-12-01T09:09:12.813Z,44.70
2022-12-01T09:11:41.465Z,50.20
2022-12-01T09:14:09.535Z,47.20
2022-12-01T09:16:37.687Z,45.80
2022-12-01T09:19:05.574Z,42.50
2022-12-01T09:21:34.360Z,48.20
2022-12-01T09:24:02.537Z,43.50
2022-12-01T09:26:31.014Z,44.20
2022-12-01T09:29:03.161Z,50.50
2022-12-01T09:31:31.106Z,48.70
2022-12-01T09:34:03.292Z,46.60
2022-12-01T09:36:32.006Z,44.80
2022-12-01T09:38:59.962Z,46.10
2022-12-01T09:41:33.567Z,46.80
2022-12-01T09:44:15.212Z,40.70
2022-12-01T09:46:43.098Z,43.00
2022-12-01T09:49:15.532Z,43.60
2022-12-01T09:51:43.672Z,43.70
2022-12-01T09:54:13.993Z,42.50
2022-12-01T09:56:50.442Z,41.20
2022-12-01T09:59:20.786Z,44.70
2022-12-01T10:01:50.699Z,44.30
2022-12-01T10:04:26.966Z,41.40
2022-12-01T10:07:00.149Z,39.60
2022-12-01T10:09:37.447Z,40.90
2022-12-01T10:12:16.316Z,42.40
2022-12-01T10:14:45.179Z,40.70
2022-12-01T10:17:13.010Z,38.50
2022-12-01T10:19:51.752Z,39.60
2022-12-01T10:22:27.472Z,39.70
2022-12-01T10:24:58.523Z,43.90
2022-12-01T10:27:40.518Z,42.00
2022-12-01T10:30:17.293Z,42.10
2022-12-01T10:32:49.781Z,44.50
2022-12-01T10:35:18.861Z,46.40
2022-12-01T10:37:47.495Z,42.20
2022-12-01T10:40:16.548Z,41.60
2022-12-01T10:42:46.313Z,42.70
2022-12-01T10:45:16.528Z,42.40
2022-12-01T10:48:03.196Z,41.00
2022-12-01T10:50:31.551Z,41.70
2022-12-01T10:52:59.520Z,41.90
2022-12-01T10:55:28.379Z,39.50
2022-12-01T10:57:57.350Z,45.20
2022-12-01T11:00:58.440Z,40.10
2022-12-01T11:03:21.840Z,40.40
2022-12-01T11:05:53.058Z,42.00
2022-12-01T11:08:43.934Z,42.60
2022-12-01T11:11:26.363Z,42.40
2022-12-01T11:13:54.843Z,40.50
2022-12-01T11:16:37.556Z,39.10
2022-12-01T11:19:28.853Z,41.30
2022-12-01T11:21:58.277Z,44.00
2022-12-01T11:24:42.528Z,37.50
2022-12-01T11:27:21.447Z,42.80
2022-12-01T11:29:51.801Z,42.90
2022-12-01T11:32:23.225Z,40.50
2022-12-01T11:34:56.566Z,37.90
2022-12-01T11:37:26.101Z,43.50
2022-12-01T11:39:54.294Z,46.70
2022-12-01T11:42:27.017Z,46.80
2022-12-01T11:45:03.752Z,44.60
2022-12-01T11:47:31.978Z,44.10
2022-12-01T11:50:02.372Z,41.10
2022-12-01T11:52:36.717Z,41.90
2022-12-01T11:55:13.638Z,41.80
2022-12-01T11:57:43.150Z,45.50
2022-12-01T12:00:14.250Z,42.00
2022-12-01T12:02:48.933Z,45.20
2022-12-01T12:05:38.885Z,44.30
2022-12-01T12:08:16.795Z,39.00
2022-12-01T12:10:47.679Z,42.20
2022-12-01T12:13:15.447Z,47.40
2022-12-01T12:15:46.110Z,41.00
2022-12-01T12:18:20.034Z,44.90
2022-12-01T12:20:56.762Z,45.80
2022-12-01T12:23:43.458Z,41.30
2022-12-01T12:26:14.393Z,40.40
2022-12-01T12:28:57.698Z,40.80
2022-12-01T12:31:29.742Z,43.40
2022-12-01T12:34:06.413Z,44.70
2022-12-01T12:36:37.182Z,42.20
2022-12-01T12:39:27.883Z,43.30
2022-12-01T12:41:56.840Z,42.80
2022-12-01T12:44:45.583Z,41.70
2022-12-01T12:47:22.153Z,43.50
2022-12-01T12:50:01.771Z,41.30
2022-12-01T12:52:33.456Z,42.20
2022-12-01T12:55:12.351Z,40.40
2022-12-01T12:57:57.455Z,40.30
2022-12-01T13:00:26.662Z,40.00
2022-12-01T13:02:59.742Z,40.90
2022-12-01T13:05:38.667Z,41.00
2022-12-01T13:08:22.421Z,44.50
2022-12-01T13:11:03.068Z,46.70
2022-12-01T13:13:37.750Z,41.20
2022-12-01T13:16:06.990Z,41.00
2022-12-01T13:18:44.018Z,37.60
2022-12-01T13:23:39.700Z,32.30
2022-12-01T13:26:08.928Z,35.60
2022-12-01T13:28:46.507Z,32.50
2022-12-01T13:31:15.362Z,34.20
2022-12-01T13:33:55.296Z,29.40
2022-12-01T13:36:45.816Z,35.50
2022-12-01T13:39:25.777Z,35.30
2022-12-01T13:42:00.922Z,34.80
2022-12-01T13:44:31.130Z,34.40
2022-12-01T13:47:05.201Z,33.40
2022-12-01T13:49:46.508Z,35.70
2022-12-01T13:52:23.427Z,33.60
2022-12-01T13:55:00.689Z,35.00
2022-12-01T13:59:59.184Z,31.50
2022-12-01T14:02:28.694Z,33.20
2022-12-01T14:05:16.531Z,32.30
2022-12-01T14:07:44.294Z,33.10
2022-12-01T14:10:21.178Z,34.30
2022-12-01T14:12:49.343Z,35.10
2022-12-01T14:15:28.983Z,35.10
2022-12-01T14:18:06.604Z,36.30
2022-12-01T14:20:38.220Z,34.90
2022-12-01T14:23:19.058Z,33.70
2022-12-01T14:25:58.414Z,36.70
2022-12-01T14:28:45.040Z,34.90
2022-12-01T14:33:56.961Z,31.80
2022-12-01T14:36:24.814Z,41.80
2022-12-01T14:38:54.622Z,33.50
2022-12-01T14:41:27.102Z,36.80
2022-12-01T14:44:04.206Z,34.50
2022-12-01T14:46:38.815Z,24.80
2022-12-01T14:49:09.768Z,26.20
2022-12-01T14:51:37.806Z,27.20
2022-12-01T14:54:10.748Z,27.50
2022-12-01T14:56:39.170Z,26.80
2022-12-01T14:59:21.176Z,25.30
2022-12-01T15:01:51.339Z,23.60
2022-12-01T15:04:19.152Z,23.00
2022-12-01T15:06:47.520Z,18.70
2022-12-01T15:09:34.635Z,22.10
2022-12-01T15:12:06.972Z,21.30
2022-12-01T15:14:36.729Z,21.70
2022-12-01T15:17:09.198Z,18.70
2022-12-01T15:19:38.702Z,20.80
2022-12-01T15:22:14.229Z,19.40
2022-12-01T15:24:42.409Z,21.20
2022-12-01T15:27:27.270Z,21.60
2022-12-01T15:29:56.040Z,21.10
2022-12-01T15:32:24.091Z,21.80
2022-12-01T15:34:53.578Z,22.40
2022-12-01T15:37:22.744Z,28.00
2022-12-01T15:39:52.659Z,36.50
2022-12-01T15:42:40.901Z,52.30
2022-12-01T15:45:11.735Z,58.00
2022-12-01T15:47:45.962Z,58.90
2022-12-01T15:50:31.182Z,39.10
2022-12-01T15:53:01.872Z,30.40
2022-12-01T15:55:34.666Z,31.00
2022-12-01T15:58:06.539Z,25.70
2022-12-01T16:00:35.134Z,27.20
2022-12-01T16:03:03.462Z,26.10
2022-12-01T16:05:35.278Z,24.40
2022-12-01T16:08:16.554Z,24.60
2022-12-01T16:10:44.706Z,28.10
2022-12-01T16:13:31.372Z,28.00
2022-12-01T16:15:59.385Z,21.60
2022-12-01T16:18:33.843Z,27.20
2022-12-01T16:21:05.522Z,27.50
2022-12-01T16:23:33.224Z,22.00
2022-12-01T16:26:07.499Z,24.40
2022-12-01T16:28:36.119Z,26.10
2022-12-01T16:31:05.733Z,27.20
2022-12-01T16:33:37.855Z,27.40
2022-12-01T16:36:06.022Z,32.80
2022-12-01T16:38:34.001Z,34.30
2022-12-01T16:41:02.783Z,35.40
2022-12-01T16:43:31.053Z,38.20
2022-12-01T16:46:00.839Z,39.30
2022-12-01T16:48:31.271Z,44.00
2022-12-01T16:51:02.434Z,37.80
2022-12-01T16:53:30.289Z,38.30
2022-12-01T16:55:59.493Z,39.40
2022-12-01T16:58:27.869Z,35.50
2022-12-01T17:00:55.720Z,28.50
2022-12-01T17:03:25.036Z,31.00
2022-12-01T17:05:53.326Z,27.30
2022-12-01T17:08:21.818Z,28.30
2022-12-01T17:10:50.761Z,25.80
2022-12-01T17:13:19.991Z,25.30
2022-12-01T17:15:49.399Z,25.70
2022-12-01T17:18:19.574Z,23.00
2022-12-01T17:21:05.034Z,26.50
2022-12-01T17:23:33.890Z,30.10
2022-12-01T17:26:02.046Z,29.00
2022-12-01T17:28:31.141Z,30.20
2022-12-01T17:31:02.731Z,29.30
2022-12-01T17:33:31.254Z,33.20
2022-12-01T17:36:01.188Z,28.20
2022-12-01T17:38:29.478Z,29.50
2022-12-01T17:41:02.554Z,31.20
2022-12-01T17:43:30.928Z,33.30
2022-12-01T17:45:59.873Z,31.20
2022-12-01T17:48:28.807Z,50.40
2022-12-01T17:50:58.758Z,97.20
2022-12-01T17:53:26.893Z,100.50
2022-12-01T17:55:54.968Z,72.60
2022-12-01T17:58:23.889Z,63.20
2022-12-01T18:00:55.232Z,50.80
2022-12-01T18:03:24.922Z,31.50
2022-12-01T18:05:58.721Z,30.90
2022-12-01T18:08:29.856Z,32.90
2022-12-01T18:11:07.857Z,31.20
2022-12-01T18:13:37.488Z,28.70
2022-12-01T18:16:09.705Z,28.50
2022-12-01T18:18:38.521Z,27.50
2022-12-01T18:21:08.551Z,21.30
2022-12-01T18:23:37.230Z,22.50
2022-12-01T18:26:15.142Z,26.80
2022-12-01T18:28:43.978Z,24.90
2022-12-01T18:31:13.629Z,27.50
2022-12-01T18:33:43.127Z,29.60
2022-12-01T18:36:15.595Z,27.90
2022-12-01T18:38:43.969Z,32.70
2022-12-01T18:41:11.943Z,34.70
2022-12-01T18:43:40.122Z,30.10
2022-12-01T18:46:08.358Z,29.30
2022-12-01T18:48:36.466Z,26.30
2022-12-01T18:51:05.261Z,25.20
2022-12-01T18:53:33.847Z,21.90
2022-12-01T18:56:06.001Z,21.50
2022-12-01T18:58:37.246Z,22.10
2022-12-01T19:01:23.938Z,26.00
2022-12-01T19:03:52.438Z,25.00
2022-12-01T19:06:20.397Z,24.10
2022-12-01T19:08:51.048Z,24.40
2022-12-01T19:11:20.944Z,24.60
2022-12-01T19:13:49.421Z,25.90
2022-12-01T19:16:18.496Z,25.70
2022-12-01T19:18:46.962Z,28.00
2022-12-01T19:21:16.086Z,25.40
2022-12-01T19:23:44.971Z,27.90
2022-12-01T19:26:15.303Z,24.80
2022-12-01T19:28:46.143Z,26.40
2022-12-01T19:31:16.986Z,29.50
2022-12-01T19:33:45.466Z,28.20
2022-12-01T19:36:15.066Z,33.10
2022-12-01T19:38:44.595Z,33.90
2022-12-01T19:41:13.868Z,31.70
2022-12-01T19:43:45.325Z,36.00
2022-12-01T19:46:15.153Z,35.40
2022-12-01T19:48:43.398Z,35.30
2022-12-01T19:51:22.228Z,35.20
2022-12-01T19:53:50.300Z,33.40
2022-12-01T19:56:18.161Z,34.90
2022-12-01T19:58:47.169Z,33.40
2022-12-01T20:01:16.098Z,32.10
2022-12-01T20:03:48.620Z,31.80
2022-12-01T20:06:20.888Z,28.00
2022-12-01T20:08:50.973Z,33.60
2022-12-01T20:11:19.073Z,29.50
2022-12-01T20:13:48.659Z,30.20
2022-12-01T20:16:20.262Z,29.80
2022-12-01T20:18:48.748Z,30.30
2022-12-01T20:21:19.251Z,25.40
2022-12-01T20:23:50.596Z,23.30
2022-12-01T20:26:19.313Z,21.10
2022-12-01T20:28:49.663Z,24.10
2022-12-01T20:31:20.864Z,23.00
2022-12-01T20:33:49.937Z,23.30
2022-12-01T20:36:20.787Z,20.70
2022-12-01T20:38:50.278Z,21.60
2022-12-01T20:41:18.658Z,19.30
2022-12-01T20:43:47.119Z,20.90
2022-12-01T20:46:15.596Z,21.10
2022-12-01T20:48:43.995Z,20.80
2022-12-01T20:51:14.314Z,20.60
2022-12-01T20:53:59.723Z,21.90
2022-12-01T20:56:32.982Z,21.60
2022-12-01T20:59:01.884Z,21.30
2022-12-01T21:01:30.054Z,22.60
2022-12-01T21:03:59.761Z,21.60
2022-12-01T21:06:29.769Z,22.20
2022-12-01T21:08:58.249Z,22.70
2022-12-01T21:11:46.697Z,25.50
2022-12-01T21:14:35.456Z,23.10
2022-12-01T21:17:19.011Z,21.70
2022-12-01T21:19:53.445Z,21.70
2022-12-01T21:22:21.170Z,25.20
2022-12-01T21:24:51.462Z,24.70
2022-12-01T21:27:20.293Z,23.90
2022-12-01T21:29:49.048Z,24.80
2022-12-01T21:32:27.182Z,22.60
2022-12-01T21:34:55.857Z,23.20
2022-12-01T21:37:24.755Z,23.90
2022-12-01T21:39:53.735Z,24.50
2022-12-01T21:42:23.142Z,27.50
2022-12-01T21:44:51.180Z,26.60
2022-12-01T21:47:23.665Z,23.90
2022-12-01T21:49:57.212Z,24.40
2022-12-01T21:52:30.355Z,19.60
2022-12-01T21:55:06.034Z,21.60
2022-12-01T21:57:43.089Z,22.90
2022-12-01T22:00:29.707Z,23.10
2022-12-01T22:02:58.671Z,21.70
2022-12-01T22:05:29.650Z,21.60
2022-12-01T22:08:18.310Z,23.60
2022-12-01T22:10:55.981Z,24.60
2022-12-01T22:13:26.526Z,22.80
2022-12-01T22:15:55.381Z,26.10
2022-12-01T22:18:25.626Z,24.40
2022-12-01T22:20:54.086Z,22.40
2022-12-01T22:23:23.554Z,25.50
2022-12-01T22:25:51.571Z,21.50
2022-12-01T22:28:23.617Z,24.80
2022-12-01T22:30:52.473Z,22.90
2022-12-01T22:33:22.746Z,25.10
2022-12-01T22:35:52.701Z,26.20
2022-12-01T22:38:24.682Z,25.40
2022-12-01T22:41:01.202Z,25.10
2022-12-01T22:43:32.379Z,23.30
2022-12-01T22:46:00.188Z,25.10
2022-12-01T22:48:28.986Z,25.90
2022-12-01T22:51:00.728Z,26.40
2022-12-01T22:53:30.761Z,31.60
2022-12-01T22:56:00.725Z,30.40
2022-12-01T22:58:32.231Z,31.70
2022-12-01T23:01:10.418Z,36.30
2022-12-01T23:03:39.016Z,31.60
2022-12-01T23:06:27.068Z,30.80
2022-12-01T23:08:55.259Z,31.70
2022-12-01T23:11:24.464Z,29.30
2022-12-01T23:13:53.518Z,30.30
2022-12-01T23:16:21.254Z,29.40
2022-12-01T23:18:51.247Z,25.00
2022-12-01T23:21:19.084Z,24.80
2022-12-01T23:23:46.723Z,26.20
2022-12-01T23:26:14.381Z,20.90
2022-12-01T23:28:42.251Z,23.20
2022-12-01T23:31:10.470Z,22.30
2022-12-01T23:33:38.595Z,25.30
2022-12-01T23:36:26.234Z,25.00
2022-12-01T23:38:57.056Z,22.20
2022-12-01T23:41:31.174Z,21.10
2022-12-01T23:44:00.794Z,22.60
2022-12-01T23:46:28.552Z,22.80
2022-12-01T23:48:57.823Z,22.70
2022-12-01T23:51:27.853Z,23.00
2022-12-01T23:53:56.641Z,23.40
2022-12-01T23:56:25.325Z,20.50
2022-12-01T23:58:54.386Z,25.40
